sensor_id;sensor_type;location;lat;lon;timestamp;temperature;humidity
30983;DHT22;17660;52.578;13.288;2023-06-22T00:02:26;24.30;94.80
30983;DHT22;17660;52.578;13.288;2023-06-22T00:04:53;24.30;94.60
30983;DHT22;17660;52.578;13.288;2023-06-22T00:07:19;24.30;94.70
30983;DHT22;17660;52.578;13.288;2023-06-22T00:09:46;24.30;94.80
30983;DHT22;17660;52.578;13.288;2023-06-22T00:12:13;24.20;94.70
30983;DHT22;17660;52.578;13.288;2023-06-22T00:14:39;24.20;94.80
30983;DHT22;17660;52.578;13.288;2023-06-22T00:17:06;24.20;94.80
30983;DHT22;17660;52.578;13.288;2023-06-22T00:19:33;24.20;94.80
30983;DHT22;17660;52.578;13.288;2023-06-22T00:22:02;24.10;94.90
30983;DHT22;17660;52.578;13.288;2023-06-22T00:24:30;24.10;94.90
30983;DHT22;17660;52.578;13.288;2023-06-22T00:26:56;24.10;95.00
30983;DHT22;17660;52.578;13.288;2023-06-22T00:29:23;24.10;95.30
30983;DHT22;17660;52.578;13.288;2023-06-22T00:31:51;24.10;95.20
30983;DHT22;17660;52.578;13.288;2023-06-22T00:34:18;24.00;95.30
30983;DHT22;17660;52.578;13.288;2023-06-22T00:36:44;24.00;95.30
30983;DHT22;17660;52.578;13.288;2023-06-22T00:39:12;24.00;95.30
30983;DHT22;17660;52.578;13.288;2023-06-22T00:41:38;23.90;95.40
30983;DHT22;17660;52.578;13.288;2023-06-22T00:44:05;23.90;95.60
30983;DHT22;17660;52.578;13.288;2023-06-22T00:46:33;23.80;95.70
30983;DHT22;17660;52.578;13.288;2023-06-22T00:49:00;23.80;96.00
30983;DHT22;17660;52.578;13.288;2023-06-22T00:51:26;23.80;95.70
30983;DHT22;17660;52.578;13.288;2023-06-22T00:53:53;23.70;95.70
30983;DHT22;17660;52.578;13.288;2023-06-22T00:56:20;23.70;95.60
30983;DHT22;17660;52.578;13.288;2023-06-22T00:58:51;23.70;95.70
30983;DHT22;17660;52.578;13.288;2023-06-22T01:01:19;23.30;95.60
30983;DHT22;17660;52.578;13.288;2023-06-22T01:03:50;23.60;95.80
30983;DHT22;17660;52.578;13.288;2023-06-22T01:06:29;23.60;95.90
30983;DHT22;17660;52.578;13.288;2023-06-22T01:09:02;23.50;96.00
30983;DHT22;17660;52.578;13.288;2023-06-22T01:11:36;23.50;96.00
30983;DHT22;17660;52.578;13.288;2023-06-22T01:17:04;23.50;96.10
30983;DHT22;17660;52.578;13.288;2023-06-22T01:19:39;23.40;96.10
30983;DHT22;17660;52.578;13.288;2023-06-22T01:22:10;23.40;96.00
30983;DHT22;17660;52.578;13.288;2023-06-22T01:27:18;23.40;96.30
30983;DHT22;17660;52.578;13.288;2023-06-22T01:29:51;23.30;96.60
30983;DHT22;17660;52.578;13.288;2023-06-22T01:32:19;23.30;96.40
30983;DHT22;17660;52.578;13.288;2023-06-22T01:34:46;23.30;96.40
30983;DHT22;17660;52.578;13.288;2023-06-22T01:37:14;23.30;96.40
30983;DHT22;17660;52.578;13.288;2023-06-22T01:39:41;23.30;96.30
30983;DHT22;17660;52.578;13.288;2023-06-22T01:42:08;23.30;96.40
30983;DHT22;17660;52.578;13.288;2023-06-22T01:44:35;23.30;96.40
30983;DHT22;17660;52.578;13.288;2023-06-22T01:47:02;23.30;96.50
30983;DHT22;17660;52.578;13.288;2023-06-22T01:49:29;23.30;96.50
30983;DHT22;17660;52.578;13.288;2023-06-22T01:51:56;23.20;96.50
30983;DHT22;17660;52.578;13.288;2023-06-22T01:54:23;23.20;96.50
30983;DHT22;17660;52.578;13.288;2023-06-22T01:56:50;23.20;96.50
30983;DHT22;17660;52.578;13.288;2023-06-22T01:59:26;23.10;96.50
30983;DHT22;17660;52.578;13.288;2023-06-22T02:02:02;23.10;96.70
30983;DHT22;17660;52.578;13.288;2023-06-22T02:07:05;23.10;96.90
30983;DHT22;17660;52.578;13.288;2023-06-22T02:09:34;23.10;97.20
30983;DHT22;17660;52.578;13.288;2023-06-22T02:12:02;23.00;97.30
30983;DHT22;17660;52.578;13.288;2023-06-22T02:14:29;23.00;97.20
30983;DHT22;17660;52.578;13.288;2023-06-22T02:16:56;23.00;97.20
30983;DHT22;17660;52.578;13.288;2023-06-22T02:19:26;22.90;97.20
30983;DHT22;17660;52.578;13.288;2023-06-22T02:21:53;22.90;97.40
30983;DHT22;17660;52.578;13.288;2023-06-22T02:24:19;22.90;97.30
30983;DHT22;17660;52.578;13.288;2023-06-22T02:26:49;22.80;97.40
30983;DHT22;17660;52.578;13.288;2023-06-22T02:29:16;22.80;97.50
30983;DHT22;17660;52.578;13.288;2023-06-22T02:31:44;22.90;97.70
30983;DHT22;17660;52.578;13.288;2023-06-22T02:34:11;22.80;97.60
30983;DHT22;17660;52.578;13.288;2023-06-22T02:36:45;22.80;97.60
30983;DHT22;17660;52.578;13.288;2023-06-22T02:39:18;22.80;97.70
30983;DHT22;17660;52.578;13.288;2023-06-22T02:41:45;22.80;97.80
30983;DHT22;17660;52.578;13.288;2023-06-22T02:44:11;22.80;97.90
30983;DHT22;17660;52.578;13.288;2023-06-22T02:46:38;22.80;98.00
30983;DHT22;17660;52.578;13.288;2023-06-22T02:49:05;22.80;97.90
30983;DHT22;17660;52.578;13.288;2023-06-22T02:51:33;22.80;98.00
30983;DHT22;17660;52.578;13.288;2023-06-22T02:54:00;22.80;98.10
30983;DHT22;17660;52.578;13.288;2023-06-22T02:56:28;22.80;98.10
30983;DHT22;17660;52.578;13.288;2023-06-22T02:58:55;22.80;98.20
30983;DHT22;17660;52.578;13.288;2023-06-22T03:01:27;22.80;98.30
30983;DHT22;17660;52.578;13.288;2023-06-22T03:03:54;22.80;98.20
30983;DHT22;17660;52.578;13.288;2023-06-22T03:06:21;22.80;98.20
30983;DHT22;17660;52.578;13.288;2023-06-22T03:09:04;22.80;98.40
30983;DHT22;17660;52.578;13.288;2023-06-22T03:11:32;22.80;98.30
30983;DHT22;17660;52.578;13.288;2023-06-22T03:13:59;22.80;98.40
30983;DHT22;17660;52.578;13.288;2023-06-22T03:16:26;22.80;98.40
30983;DHT22;17660;52.578;13.288;2023-06-22T03:18:53;22.90;98.40
30983;DHT22;17660;52.578;13.288;2023-06-22T03:21:22;22.90;98.40
30983;DHT22;17660;52.578;13.288;2023-06-22T03:23:48;22.90;98.40
30983;DHT22;17660;52.578;13.288;2023-06-22T03:26:19;22.90;98.50
30983;DHT22;17660;52.578;13.288;2023-06-22T03:28:46;22.90;98.30
30983;DHT22;17660;52.578;13.288;2023-06-22T03:31:12;22.90;98.30
30983;DHT22;17660;52.578;13.288;2023-06-22T03:33:39;23.00;98.50
30983;DHT22;17660;52.578;13.288;2023-06-22T03:36:06;23.00;98.30
30983;DHT22;17660;52.578;13.288;2023-06-22T03:38:32;23.00;98.40
30983;DHT22;17660;52.578;13.288;2023-06-22T03:40:59;23.00;98.60
30983;DHT22;17660;52.578;13.288;2023-06-22T03:43:26;23.00;98.40
30983;DHT22;17660;52.578;13.288;2023-06-22T03:45:53;22.90;98.50
30983;DHT22;17660;52.578;13.288;2023-06-22T03:48:20;22.90;98.50
30983;DHT22;17660;52.578;13.288;2023-06-22T03:50:46;23.00;98.60
30983;DHT22;17660;52.578;13.288;2023-06-22T03:53:13;23.00;98.60
30983;DHT22;17660;52.578;13.288;2023-06-22T03:55:49;23.00;98.50
30983;DHT22;17660;52.578;13.288;2023-06-22T03:58:17;23.00;98.50
30983;DHT22;17660;52.578;13.288;2023-06-22T04:00:48;23.00;98.60
30983;DHT22;17660;52.578;13.288;2023-06-22T04:03:15;23.00;99.00
30983;DHT22;17660;52.578;13.288;2023-06-22T04:05:42;23.00;98.70
30983;DHT22;17660;52.578;13.288;2023-06-22T04:08:09;23.00;98.70
30983;DHT22;17660;52.578;13.288;2023-06-22T04:10:36;23.00;98.70
30983;DHT22;17660;52.578;13.288;2023-06-22T04:13:02;23.00;98.80
30983;DHT22;17660;52.578;13.288;2023-06-22T04:15:29;23.00;98.70
30983;DHT22;17660;52.578;13.288;2023-06-22T04:17:56;23.00;98.70
30983;DHT22;17660;52.578;13.288;2023-06-22T04:20:23;23.10;98.90
30983;DHT22;17660;52.578;13.288;2023-06-22T04:22:55;23.10;98.80
30983;DHT22;17660;52.578;13.288;2023-06-22T04:25:22;23.10;98.70
30983;DHT22;17660;52.578;13.288;2023-06-22T04:27:49;23.10;98.70
30983;DHT22;17660;52.578;13.288;2023-06-22T04:30:16;23.10;98.70
30983;DHT22;17660;52.578;13.288;2023-06-22T04:32:43;23.10;98.70
30983;DHT22;17660;52.578;13.288;2023-06-22T04:35:10;23.10;98.60
30983;DHT22;17660;52.578;13.288;2023-06-22T04:37:37;23.10;98.40
30983;DHT22;17660;52.578;13.288;2023-06-22T04:40:06;23.10;98.30
30983;DHT22;17660;52.578;13.288;2023-06-22T04:42:34;23.10;98.20
30983;DHT22;17660;52.578;13.288;2023-06-22T04:45:01;23.20;98.00
30983;DHT22;17660;52.578;13.288;2023-06-22T04:47:28;23.20;97.90
30983;DHT22;17660;52.578;13.288;2023-06-22T04:49:54;23.20;97.90
30983;DHT22;17660;52.578;13.288;2023-06-22T04:52:21;23.20;97.90
30983;DHT22;17660;52.578;13.288;2023-06-22T04:54:48;23.20;98.00
30983;DHT22;17660;52.578;13.288;2023-06-22T04:57:16;23.20;97.70
30983;DHT22;17660;52.578;13.288;2023-06-22T04:59:43;23.30;97.80
30983;DHT22;17660;52.578;13.288;2023-06-22T05:02:10;23.30;97.70
30983;DHT22;17660;52.578;13.288;2023-06-22T05:04:37;23.30;97.00
30983;DHT22;17660;52.578;13.288;2023-06-22T05:07:07;23.20;97.20
30983;DHT22;17660;52.578;13.288;2023-06-22T05:09:34;23.30;97.20
30983;DHT22;17660;52.578;13.288;2023-06-22T05:12:01;23.30;97.20
30983;DHT22;17660;52.578;13.288;2023-06-22T05:14:29;23.30;97.00
30983;DHT22;17660;52.578;13.288;2023-06-22T05:16:56;23.40;96.60
30983;DHT22;17660;52.578;13.288;2023-06-22T05:19:25;23.40;97.00
30983;DHT22;17660;52.578;13.288;2023-06-22T05:21:57;23.40;97.00
30983;DHT22;17660;52.578;13.288;2023-06-22T05:24:24;23.40;96.90
30983;DHT22;17660;52.578;13.288;2023-06-22T05:26:51;23.50;96.70
30983;DHT22;17660;52.578;13.288;2023-06-22T05:29:17;23.50;96.50
30983;DHT22;17660;52.578;13.288;2023-06-22T05:31:44;23.60;96.40
30983;DHT22;17660;52.578;13.288;2023-06-22T05:34:11;23.60;96.30
30983;DHT22;17660;52.578;13.288;2023-06-22T05:36:39;23.60;96.30
30983;DHT22;17660;52.578;13.288;2023-06-22T05:39:12;23.50;96.30
30983;DHT22;17660;52.578;13.288;2023-06-22T05:41:42;23.60;96.40
30983;DHT22;17660;52.578;13.288;2023-06-22T05:44:09;23.60;96.40
30983;DHT22;17660;52.578;13.288;2023-06-22T05:46:36;23.60;96.90
30983;DHT22;17660;52.578;13.288;2023-06-22T05:49:03;23.70;95.80
30983;DHT22;17660;52.578;13.288;2023-06-22T05:51:30;23.60;95.20
30983;DHT22;17660;52.578;13.288;2023-06-22T05:53:56;23.60;94.90
30983;DHT22;17660;52.578;13.288;2023-06-22T05:56:23;23.70;95.10
30983;DHT22;17660;52.578;13.288;2023-06-22T05:58:50;23.70;95.00
30983;DHT22;17660;52.578;13.288;2023-06-22T06:01:16;23.70;94.90
30983;DHT22;17660;52.578;13.288;2023-06-22T06:03:43;23.80;95.10
30983;DHT22;17660;52.578;13.288;2023-06-22T06:06:10;23.80;95.60
30983;DHT22;17660;52.578;13.288;2023-06-22T06:08:37;23.80;94.90
30983;DHT22;17660;52.578;13.288;2023-06-22T06:11:04;23.80;95.10
30983;DHT22;17660;52.578;13.288;2023-06-22T06:13:31;23.80;94.80
30983;DHT22;17660;52.578;13.288;2023-06-22T06:15:58;23.80;94.50
30983;DHT22;17660;52.578;13.288;2023-06-22T06:18:25;23.90;94.10
30983;DHT22;17660;52.578;13.288;2023-06-22T06:20:52;23.80;94.40
30983;DHT22;17660;52.578;13.288;2023-06-22T06:23:19;23.80;94.10
30983;DHT22;17660;52.578;13.288;2023-06-22T06:25:46;23.80;93.50
30983;DHT22;17660;52.578;13.288;2023-06-22T06:28:12;23.80;93.70
30983;DHT22;17660;52.578;13.288;2023-06-22T06:30:39;23.90;94.40
30983;DHT22;17660;52.578;13.288;2023-06-22T06:33:07;23.90;93.90
30983;DHT22;17660;52.578;13.288;2023-06-22T06:35:35;23.90;93.30
30983;DHT22;17660;52.578;13.288;2023-06-22T06:38:02;23.90;93.50
30983;DHT22;17660;52.578;13.288;2023-06-22T06:40:29;24.00;93.40
30983;DHT22;17660;52.578;13.288;2023-06-22T06:42:56;24.00;93.70
30983;DHT22;17660;52.578;13.288;2023-06-22T06:45:24;24.00;92.80
30983;DHT22;17660;52.578;13.288;2023-06-22T06:47:51;24.00;93.80
30983;DHT22;17660;52.578;13.288;2023-06-22T06:50:18;24.00;93.50
30983;DHT22;17660;52.578;13.288;2023-06-22T06:52:45;24.10;93.70
30983;DHT22;17660;52.578;13.288;2023-06-22T06:55:12;24.00;93.90
30983;DHT22;17660;52.578;13.288;2023-06-22T06:57:40;24.10;92.60
30983;DHT22;17660;52.578;13.288;2023-06-22T07:00:09;24.10;93.10
30983;DHT22;17660;52.578;13.288;2023-06-22T07:02:39;24.20;93.20
30983;DHT22;17660;52.578;13.288;2023-06-22T07:05:07;24.20;92.80
30983;DHT22;17660;52.578;13.288;2023-06-22T07:07:33;24.20;93.00
30983;DHT22;17660;52.578;13.288;2023-06-22T07:10:04;24.30;93.00
30983;DHT22;17660;52.578;13.288;2023-06-22T07:12:32;24.40;92.20
30983;DHT22;17660;52.578;13.288;2023-06-22T07:15:05;24.40;92.00
30983;DHT22;17660;52.578;13.288;2023-06-22T07:17:34;24.50;92.30
30983;DHT22;17660;52.578;13.288;2023-06-22T07:20:02;24.50;90.60
30983;DHT22;17660;52.578;13.288;2023-06-22T07:22:30;24.50;90.70
30983;DHT22;17660;52.578;13.288;2023-06-22T07:24:57;24.60;91.50
30983;DHT22;17660;52.578;13.288;2023-06-22T07:27:24;24.60;91.60
30983;DHT22;17660;52.578;13.288;2023-06-22T07:29:51;24.60;92.20
30983;DHT22;17660;52.578;13.288;2023-06-22T07:32:17;24.60;92.00
30983;DHT22;17660;52.578;13.288;2023-06-22T07:34:44;24.70;92.40
30983;DHT22;17660;52.578;13.288;2023-06-22T07:37:11;24.70;91.10
30983;DHT22;17660;52.578;13.288;2023-06-22T07:39:37;24.70;91.80
30983;DHT22;17660;52.578;13.288;2023-06-22T07:42:04;24.80;91.40
30983;DHT22;17660;52.578;13.288;2023-06-22T07:44:31;24.90;91.70
30983;DHT22;17660;52.578;13.288;2023-06-22T07:46:58;24.90;91.50
30983;DHT22;17660;52.578;13.288;2023-06-22T07:49:24;24.90;90.30
30983;DHT22;17660;52.578;13.288;2023-06-22T07:51:51;24.90;89.50
30983;DHT22;17660;52.578;13.288;2023-06-22T07:54:18;24.90;90.50
30983;DHT22;17660;52.578;13.288;2023-06-22T07:56:45;24.90;86.80
30983;DHT22;17660;52.578;13.288;2023-06-22T07:59:12;24.90;89.30
30983;DHT22;17660;52.578;13.288;2023-06-22T08:01:39;25.00;90.90
30983;DHT22;17660;52.578;13.288;2023-06-22T08:04:06;25.10;90.30
30983;DHT22;17660;52.578;13.288;2023-06-22T08:06:32;25.10;90.40
30983;DHT22;17660;52.578;13.288;2023-06-22T08:08:59;25.10;89.10
30983;DHT22;17660;52.578;13.288;2023-06-22T08:11:26;25.10;90.20
30983;DHT22;17660;52.578;13.288;2023-06-22T08:13:53;25.20;90.20
30983;DHT22;17660;52.578;13.288;2023-06-22T08:16:22;25.20;91.10
30983;DHT22;17660;52.578;13.288;2023-06-22T08:18:48;25.30;90.30
30983;DHT22;17660;52.578;13.288;2023-06-22T08:21:15;25.40;89.00
30983;DHT22;17660;52.578;13.288;2023-06-22T08:23:42;25.50;90.10
30983;DHT22;17660;52.578;13.288;2023-06-22T08:26:08;25.50;88.40
30983;DHT22;17660;52.578;13.288;2023-06-22T08:28:35;25.50;89.70
30983;DHT22;17660;52.578;13.288;2023-06-22T08:31:02;25.50;90.50
30983;DHT22;17660;52.578;13.288;2023-06-22T08:33:30;25.50;92.00
30983;DHT22;17660;52.578;13.288;2023-06-22T08:35:58;25.50;91.50
30983;DHT22;17660;52.578;13.288;2023-06-22T08:38:25;25.40;90.20
30983;DHT22;17660;52.578;13.288;2023-06-22T08:40:51;25.40;88.50
30983;DHT22;17660;52.578;13.288;2023-06-22T08:43:18;25.40;91.00
30983;DHT22;17660;52.578;13.288;2023-06-22T08:45:45;25.40;90.80
30983;DHT22;17660;52.578;13.288;2023-06-22T08:48:12;25.40;89.80
30983;DHT22;17660;52.578;13.288;2023-06-22T08:50:39;25.30;90.40
30983;DHT22;17660;52.578;13.288;2023-06-22T08:53:07;25.30;90.30
30983;DHT22;17660;52.578;13.288;2023-06-22T08:55:33;25.40;90.30
30983;DHT22;17660;52.578;13.288;2023-06-22T08:58:00;25.40;90.70
30983;DHT22;17660;52.578;13.288;2023-06-22T09:00:27;25.50;92.70
30983;DHT22;17660;52.578;13.288;2023-06-22T09:02:55;25.50;87.00
30983;DHT22;17660;52.578;13.288;2023-06-22T09:05:25;25.60;91.20
30983;DHT22;17660;52.578;13.288;2023-06-22T09:07:58;25.70;88.00
30983;DHT22;17660;52.578;13.288;2023-06-22T09:10:25;25.80;88.70
30983;DHT22;17660;52.578;13.288;2023-06-22T09:12:52;25.90;87.10
30983;DHT22;17660;52.578;13.288;2023-06-22T09:15:19;25.80;86.00
30983;DHT22;17660;52.578;13.288;2023-06-22T09:17:45;25.90;90.50
30983;DHT22;17660;52.578;13.288;2023-06-22T09:20:13;25.90;89.20
30983;DHT22;17660;52.578;13.288;2023-06-22T09:22:40;26.00;86.10
30983;DHT22;17660;52.578;13.288;2023-06-22T09:25:07;26.20;86.20
30983;DHT22;17660;52.578;13.288;2023-06-22T09:27:34;26.30;85.80
30983;DHT22;17660;52.578;13.288;2023-06-22T09:30:00;26.60;89.50
30983;DHT22;17660;52.578;13.288;2023-06-22T09:32:27;26.80;84.80
30983;DHT22;17660;52.578;13.288;2023-06-22T09:34:57;27.10;86.80
30983;DHT22;17660;52.578;13.288;2023-06-22T09:37:23;27.40;85.80
30983;DHT22;17660;52.578;13.288;2023-06-22T09:39:50;27.60;86.70
30983;DHT22;17660;52.578;13.288;2023-06-22T09:42:17;27.90;85.20
30983;DHT22;17660;52.578;13.288;2023-06-22T09:44:43;28.10;82.50
30983;DHT22;17660;52.578;13.288;2023-06-22T09:47:10;28.20;82.40
30983;DHT22;17660;52.578;13.288;2023-06-22T09:49:37;28.30;82.00
30983;DHT22;17660;52.578;13.288;2023-06-22T09:52:13;28.40;77.70
30983;DHT22;17660;52.578;13.288;2023-06-22T09:54:40;28.30;80.30
30983;DHT22;17660;52.578;13.288;2023-06-22T09:57:07;28.30;81.80
30983;DHT22;17660;52.578;13.288;2023-06-22T09:59:33;28.40;82.50
30983;DHT22;17660;52.578;13.288;2023-06-22T10:02:00;28.50;80.10
30983;DHT22;17660;52.578;13.288;2023-06-22T10:04:30;28.50;78.30
30983;DHT22;17660;52.578;13.288;2023-06-22T10:06:57;28.60;81.50
30983;DHT22;17660;52.578;13.288;2023-06-22T10:09:24;28.80;81.80
30983;DHT22;17660;52.578;13.288;2023-06-22T10:11:50;28.90;81.50
30983;DHT22;17660;52.578;13.288;2023-06-22T10:14:17;29.10;81.50
30983;DHT22;17660;52.578;13.288;2023-06-22T10:16:44;29.00;77.20
30983;DHT22;17660;52.578;13.288;2023-06-22T10:19:11;29.00;79.60
30983;DHT22;17660;52.578;13.288;2023-06-22T10:21:37;28.90;77.10
30983;DHT22;17660;52.578;13.288;2023-06-22T10:24:04;28.90;78.70
30983;DHT22;17660;52.578;13.288;2023-06-22T10:26:35;28.80;78.60
30983;DHT22;17660;52.578;13.288;2023-06-22T10:29:02;28.80;79.40
30983;DHT22;17660;52.578;13.288;2023-06-22T10:31:32;28.70;77.90
30983;DHT22;17660;52.578;13.288;2023-06-22T10:33:59;28.60;76.00
30983;DHT22;17660;52.578;13.288;2023-06-22T10:36:26;28.70;79.10
30983;DHT22;17660;52.578;13.288;2023-06-22T10:38:53;28.80;77.20
30983;DHT22;17660;52.578;13.288;2023-06-22T10:41:20;28.70;75.30
30983;DHT22;17660;52.578;13.288;2023-06-22T10:43:46;28.60;75.80
30983;DHT22;17660;52.578;13.288;2023-06-22T10:46:13;28.60;76.80
30983;DHT22;17660;52.578;13.288;2023-06-22T10:48:40;28.70;78.10
30983;DHT22;17660;52.578;13.288;2023-06-22T10:51:06;28.80;76.10
30983;DHT22;17660;52.578;13.288;2023-06-22T10:53:33;28.90;77.00
30983;DHT22;17660;52.578;13.288;2023-06-22T10:56:00;29.10;79.80
30983;DHT22;17660;52.578;13.288;2023-06-22T10:58:27;29.10;76.70
30983;DHT22;17660;52.578;13.288;2023-06-22T11:00:53;29.20;77.60
30983;DHT22;17660;52.578;13.288;2023-06-22T11:03:20;29.40;78.90
30983;DHT22;17660;52.578;13.288;2023-06-22T11:05:47;29.50;77.90
30983;DHT22;17660;52.578;13.288;2023-06-22T11:08:14;29.40;77.30
30983;DHT22;17660;52.578;13.288;2023-06-22T11:10:41;29.50;78.40
30983;DHT22;17660;52.578;13.288;2023-06-22T11:13:09;29.60;78.60
30983;DHT22;17660;52.578;13.288;2023-06-22T11:15:38;29.40;76.10
30983;DHT22;17660;52.578;13.288;2023-06-22T11:18:05;29.40;76.60
30983;DHT22;17660;52.578;13.288;2023-06-22T11:20:33;29.50;77.70
30983;DHT22;17660;52.578;13.288;2023-06-22T11:23:05;29.50;76.90
30983;DHT22;17660;52.578;13.288;2023-06-22T11:25:33;29.30;76.00
30983;DHT22;17660;52.578;13.288;2023-06-22T11:28:02;29.40;76.60
30983;DHT22;17660;52.578;13.288;2023-06-22T11:30:29;29.50;76.20
30983;DHT22;17660;52.578;13.288;2023-06-22T11:32:58;29.70;76.10
30983;DHT22;17660;52.578;13.288;2023-06-22T11:35:25;30.00;78.60
30983;DHT22;17660;52.578;13.288;2023-06-22T11:37:52;30.10;75.40
30983;DHT22;17660;52.578;13.288;2023-06-22T11:40:19;30.10;75.70
30983;DHT22;17660;52.578;13.288;2023-06-22T11:42:45;29.90;74.30
30983;DHT22;17660;52.578;13.288;2023-06-22T11:45:12;29.80;76.50
30983;DHT22;17660;52.578;13.288;2023-06-22T11:47:39;29.80;77.70
30983;DHT22;17660;52.578;13.288;2023-06-22T11:50:07;29.90;76.40
30983;DHT22;17660;52.578;13.288;2023-06-22T11:52:34;29.90;75.10
30983;DHT22;17660;52.578;13.288;2023-06-22T11:55:02;29.90;76.90
30983;DHT22;17660;52.578;13.288;2023-06-22T11:57:38;29.90;74.40
30983;DHT22;17660;52.578;13.288;2023-06-22T12:00:05;29.80;75.30
30983;DHT22;17660;52.578;13.288;2023-06-22T12:02:44;29.90;75.90
30983;DHT22;17660;52.578;13.288;2023-06-22T12:05:11;29.90;77.00
30983;DHT22;17660;52.578;13.288;2023-06-22T12:07:38;30.00;73.70
30983;DHT22;17660;52.578;13.288;2023-06-22T12:10:05;30.00;72.00
30983;DHT22;17660;52.578;13.288;2023-06-22T12:12:32;29.90;73.80
30983;DHT22;17660;52.578;13.288;2023-06-22T12:14:59;29.90;72.70
30983;DHT22;17660;52.578;13.288;2023-06-22T12:17:30;29.80;74.40
30983;DHT22;17660;52.578;13.288;2023-06-22T12:19:56;29.80;73.80
30983;DHT22;17660;52.578;13.288;2023-06-22T12:22:23;29.80;75.70
30983;DHT22;17660;52.578;13.288;2023-06-22T12:24:50;29.90;74.10
30983;DHT22;17660;52.578;13.288;2023-06-22T12:27:17;30.00;76.30
30983;DHT22;17660;52.578;13.288;2023-06-22T12:29:45;30.10;73.20
30983;DHT22;17660;52.578;13.288;2023-06-22T12:32:12;30.10;74.30
30983;DHT22;17660;52.578;13.288;2023-06-22T12:34:42;30.10;72.80
30983;DHT22;17660;52.578;13.288;2023-06-22T12:37:08;30.10;72.70
30983;DHT22;17660;52.578;13.288;2023-06-22T12:39:35;30.10;76.00
30983;DHT22;17660;52.578;13.288;2023-06-22T12:42:02;30.30;74.20
30983;DHT22;17660;52.578;13.288;2023-06-22T12:44:28;30.30;70.20
30983;DHT22;17660;52.578;13.288;2023-06-22T12:46:55;30.30;71.60
30983;DHT22;17660;52.578;13.288;2023-06-22T12:49:22;30.10;73.50
30983;DHT22;17660;52.578;13.288;2023-06-22T12:51:48;30.00;73.10
30983;DHT22;17660;52.578;13.288;2023-06-22T12:54:15;30.10;73.90
30983;DHT22;17660;52.578;13.288;2023-06-22T12:56:42;30.20;74.00
30983;DHT22;17660;52.578;13.288;2023-06-22T12:59:11;30.10;73.40
30983;DHT22;17660;52.578;13.288;2023-06-22T13:01:38;30.10;73.40
30983;DHT22;17660;52.578;13.288;2023-06-22T13:04:04;30.20;74.40
30983;DHT22;17660;52.578;13.288;2023-06-22T13:06:31;30.20;73.10
30983;DHT22;17660;52.578;13.288;2023-06-22T13:08:58;30.20;72.80
30983;DHT22;17660;52.578;13.288;2023-06-22T13:11:45;30.30;73.50
30983;DHT22;17660;52.578;13.288;2023-06-22T13:14:11;30.20;73.70
30983;DHT22;17660;52.578;13.288;2023-06-22T13:16:38;30.30;74.40
30983;DHT22;17660;52.578;13.288;2023-06-22T13:19:05;30.30;73.30
30983;DHT22;17660;52.578;13.288;2023-06-22T13:21:34;30.30;72.20
30983;DHT22;17660;52.578;13.288;2023-06-22T13:24:00;30.40;73.60
30983;DHT22;17660;52.578;13.288;2023-06-22T13:26:27;30.40;74.50
30983;DHT22;17660;52.578;13.288;2023-06-22T13:28:57;30.40;71.70
30983;DHT22;17660;52.578;13.288;2023-06-22T13:31:24;30.40;72.70
30983;DHT22;17660;52.578;13.288;2023-06-22T13:33:50;30.30;72.50
30983;DHT22;17660;52.578;13.288;2023-06-22T13:36:18;30.40;72.70
30983;DHT22;17660;52.578;13.288;2023-06-22T13:38:46;30.40;72.60
30983;DHT22;17660;52.578;13.288;2023-06-22T13:41:13;30.40;71.60
30983;DHT22;17660;52.578;13.288;2023-06-22T13:43:40;30.40;73.40
30983;DHT22;17660;52.578;13.288;2023-06-22T13:46:07;30.50;72.60
30983;DHT22;17660;52.578;13.288;2023-06-22T13:48:33;30.40;72.10
30983;DHT22;17660;52.578;13.288;2023-06-22T13:51:00;30.40;72.90
30983;DHT22;17660;52.578;13.288;2023-06-22T13:53:27;30.40;72.30
30983;DHT22;17660;52.578;13.288;2023-06-22T13:55:53;30.40;72.20
30983;DHT22;17660;52.578;13.288;2023-06-22T13:58:20;30.30;72.40
30983;DHT22;17660;52.578;13.288;2023-06-22T14:00:47;30.40;74.10
30983;DHT22;17660;52.578;13.288;2023-06-22T14:03:15;30.40;71.70
30983;DHT22;17660;52.578;13.288;2023-06-22T14:05:45;30.50;71.40
30983;DHT22;17660;52.578;13.288;2023-06-22T14:08:11;30.50;74.40
30983;DHT22;17660;52.578;13.288;2023-06-22T14:10:58;30.50;73.00
30983;DHT22;17660;52.578;13.288;2023-06-22T14:13:25;30.50;70.80
30983;DHT22;17660;52.578;13.288;2023-06-22T14:15:51;30.50;71.60
30983;DHT22;17660;52.578;13.288;2023-06-22T14:18:20;30.50;73.10
30983;DHT22;17660;52.578;13.288;2023-06-22T14:20:48;30.50;71.70
30983;DHT22;17660;52.578;13.288;2023-06-22T14:23:15;30.60;72.70
30983;DHT22;17660;52.578;13.288;2023-06-22T14:25:42;30.50;70.80
30983;DHT22;17660;52.578;13.288;2023-06-22T14:28:09;30.40;70.00
30983;DHT22;17660;52.578;13.288;2023-06-22T14:30:35;30.50;70.00
30983;DHT22;17660;52.578;13.288;2023-06-22T14:33:02;30.40;72.10
30983;DHT22;17660;52.578;13.288;2023-06-22T14:35:29;30.50;74.40
30983;DHT22;17660;52.578;13.288;2023-06-22T14:37:55;30.60;71.70
30983;DHT22;17660;52.578;13.288;2023-06-22T14:40:22;30.60;72.10
30983;DHT22;17660;52.578;13.288;2023-06-22T14:42:52;30.70;71.30
30983;DHT22;17660;52.578;13.288;2023-06-22T14:45:19;30.70;71.60
30983;DHT22;17660;52.578;13.288;2023-06-22T14:47:45;30.70;74.00
30983;DHT22;17660;52.578;13.288;2023-06-22T14:50:12;30.80;72.30
30983;DHT22;17660;52.578;13.288;2023-06-22T14:52:40;30.70;71.70
30983;DHT22;17660;52.578;13.288;2023-06-22T14:55:07;30.70;72.90
30983;DHT22;17660;52.578;13.288;2023-06-22T14:57:34;30.80;71.60
30983;DHT22;17660;52.578;13.288;2023-06-22T15:00:00;30.80;72.00
30983;DHT22;17660;52.578;13.288;2023-06-22T15:02:28;30.80;71.10
30983;DHT22;17660;52.578;13.288;2023-06-22T15:04:55;30.80;72.10
30983;DHT22;17660;52.578;13.288;2023-06-22T15:07:22;31.00;72.20
30983;DHT22;17660;52.578;13.288;2023-06-22T15:09:49;31.00;71.10
30983;DHT22;17660;52.578;13.288;2023-06-22T15:12:15;31.00;70.10
30983;DHT22;17660;52.578;13.288;2023-06-22T15:14:42;31.00;70.00
30983;DHT22;17660;52.578;13.288;2023-06-22T15:17:09;31.10;70.70
30983;DHT22;17660;52.578;13.288;2023-06-22T15:19:36;31.20;70.20
30983;DHT22;17660;52.578;13.288;2023-06-22T15:22:04;31.10;69.50
30983;DHT22;17660;52.578;13.288;2023-06-22T15:24:31;31.20;70.30
30983;DHT22;17660;52.578;13.288;2023-06-22T15:26:58;31.20;71.30